createdAt,value
2019-04-03T00:02:08.750Z,89.49
2019-04-03T00:04:39.054Z,89.43
2019-04-03T00:07:11.183Z,89.36
2019-04-03T00:09:41.721Z,89.29
2019-04-03T00:12:12.303Z,89.20
2019-04-03T00:14:43.256Z,89.16
2019-04-03T00:17:15.876Z,89.09
2019-04-03T00:19:47.718Z,89.06
2019-04-03T00:22:21.988Z,89.05
2019-04-03T00:24:52.906Z,89.03
2019-04-03T00:27:24.160Z,89.02
2019-04-03T00:29:54.491Z,88.98
2019-04-03T00:32:25.101Z,88.91
2019-04-03T00:34:55.430Z,88.90
2019-04-03T00:37:25.805Z,88.84
2019-04-03T00:39:56.446Z,88.79
2019-04-03T00:42:26.730Z,88.70
2019-04-03T00:44:59.468Z,88.50
2019-04-03T00:47:29.852Z,88.38
2019-04-03T00:50:00.437Z,88.29
2019-04-03T00:52:31.075Z,87.95
2019-04-03T00:55:01.628Z,87.67
2019-04-03T00:57:32.077Z,87.52
2019-04-03T01:00:02.622Z,87.33
2019-04-03T01:02:34.519Z,87.21
2019-04-03T01:05:05.439Z,87.02
2019-04-03T01:07:36.043Z,86.93
2019-04-03T01:10:11.986Z,86.92
2019-04-03T01:12:42.325Z,86.97
2019-04-03T01:15:12.944Z,87.05
2019-04-03T01:17:43.532Z,86.75
2019-04-03T01:20:16.111Z,86.27
2019-04-03T01:22:46.386Z,85.42
2019-04-03T01:25:17.193Z,84.74
2019-04-03T01:27:47.443Z,84.48
2019-04-03T01:30:18.802Z,83.95
2019-04-03T01:32:50.238Z,83.27
2019-04-03T01:35:21.312Z,82.93
2019-04-03T01:37:51.777Z,82.88
2019-04-03T01:40:22.506Z,82.57
2019-04-03T01:42:53.558Z,82.40
2019-04-03T01:45:25.829Z,82.23
2019-04-03T01:47:58.201Z,81.81
2019-04-03T01:50:30.887Z,81.59
2019-04-03T01:53:02.425Z,81.27
2019-04-03T01:55:34.537Z,81.36
2019-04-03T01:58:06.722Z,81.42
2019-04-03T02:00:38.158Z,81.45
2019-04-03T02:03:10.529Z,81.53
2019-04-03T02:05:43.292Z,81.57
2019-04-03T02:08:14.587Z,81.70
2019-04-03T02:10:48.251Z,81.92
2019-04-03T02:13:18.211Z,82.12
2019-04-03T02:15:48.519Z,82.34
2019-04-03T02:18:18.985Z,82.41
2019-04-03T02:20:49.258Z,82.61
2019-04-03T02:23:19.855Z,82.89
2019-04-03T02:25:50.275Z,82.98
2019-04-03T02:28:20.548Z,82.76
2019-04-03T02:30:51.042Z,82.62
2019-04-03T02:33:21.883Z,82.47
2019-04-03T02:35:52.231Z,82.43
2019-04-03T02:38:24.344Z,82.41
2019-04-03T02:40:54.931Z,82.48
2019-04-03T02:43:25.480Z,82.22
2019-04-03T02:45:56.831Z,81.78
2019-04-03T02:48:28.315Z,81.13
2019-04-03T02:50:59.963Z,81.13
2019-04-03T02:53:31.271Z,81.64
2019-04-03T02:56:01.651Z,81.64
2019-04-03T02:58:32.065Z,81.44
2019-04-03T03:01:05.586Z,81.52
2019-04-03T03:03:34.781Z,81.43
2019-04-03T03:06:05.560Z,81.44
2019-04-03T03:08:35.846Z,81.15
2019-04-03T03:11:07.994Z,81.13
2019-04-03T03:13:39.434Z,81.10
2019-04-03T03:16:10.281Z,80.90
2019-04-03T03:18:41.701Z,80.65
2019-04-03T03:21:13.929Z,80.55
2019-04-03T03:23:44.680Z,80.56
2019-04-03T03:26:15.190Z,80.39
2019-04-03T03:28:47.429Z,80.38
2019-04-03T03:31:19.113Z,80.40
2019-04-03T03:33:50.138Z,80.54
2019-04-03T03:36:24.957Z,80.46
2019-04-03T03:38:54.686Z,80.49
2019-04-03T03:41:25.237Z,80.53
2019-04-03T03:43:57.476Z,80.49
2019-04-03T03:46:29.400Z,80.52
2019-04-03T03:49:00.268Z,80.30
2019-04-03T03:51:33.218Z,80.08
2019-04-03T03:54:04.494Z,80.00
2019-04-03T03:56:35.090Z,79.96
2019-04-03T03:59:09.165Z,79.98
2019-04-03T04:01:39.667Z,79.87
2019-04-03T04:04:12.968Z,78.87
2019-04-03T04:06:44.013Z,78.81
2019-04-03T04:09:17.099Z,78.25
2019-04-03T04:11:47.924Z,78.24
2019-04-03T04:14:21.485Z,78.16
2019-04-03T04:16:51.486Z,78.34
2019-04-03T04:19:22.781Z,78.61
2019-04-03T04:21:54.065Z,79.31
2019-04-03T04:24:27.557Z,79.31
2019-04-03T04:26:59.171Z,79.10
2019-04-03T04:29:32.413Z,79.24
2019-04-03T04:32:03.592Z,79.28
2019-04-03T04:34:33.855Z,79.33
2019-04-03T04:37:05.572Z,79.39
2019-04-03T04:39:35.904Z,79.39
2019-04-03T04:42:06.500Z,79.54
2019-04-03T04:44:37.105Z,79.59
2019-04-03T04:47:07.413Z,79.78
2019-04-03T04:49:37.979Z,79.95
2019-04-03T04:52:08.305Z,80.10
2019-04-03T04:54:38.931Z,80.28
2019-04-03T04:57:09.630Z,80.43
2019-04-03T04:59:40.188Z,80.42
2019-04-03T05:02:10.957Z,80.22
2019-04-03T05:04:41.270Z,80.18
2019-04-03T05:07:11.603Z,80.16
2019-04-03T05:09:42.308Z,79.85
2019-04-03T05:12:13.125Z,79.77
2019-04-03T05:14:44.526Z,79.77
2019-04-03T05:17:15.774Z,79.92
2019-04-03T05:19:46.878Z,80.12
2019-04-03T05:22:18.624Z,80.56
2019-04-03T05:24:50.184Z,80.61
2019-04-03T05:27:20.499Z,80.63
2019-04-03T05:29:52.470Z,80.72
2019-04-03T05:32:22.970Z,80.79
2019-04-03T05:34:53.466Z,80.89
2019-04-03T05:37:24.573Z,80.97
2019-04-03T05:39:56.118Z,81.12
2019-04-03T05:42:28.796Z,81.13
2019-04-03T05:44:59.144Z,81.21
2019-04-03T05:47:29.679Z,81.57
2019-04-03T05:50:00.119Z,82.10
2019-04-03T05:52:30.719Z,82.48
2019-04-03T05:55:01.068Z,83.23
2019-04-03T05:57:31.706Z,83.52
2019-04-03T06:00:04.346Z,83.65
2019-04-03T06:02:34.401Z,83.88
2019-04-03T06:05:06.752Z,84.05
2019-04-03T06:07:37.687Z,84.48
2019-04-03T06:10:08.304Z,84.48
2019-04-03T06:12:38.673Z,84.91
2019-04-03T06:15:10.335Z,85.05
2019-04-03T06:17:41.729Z,85.25
2019-04-03T06:20:12.153Z,85.48
2019-04-03T06:22:50.998Z,85.53
2019-04-03T06:25:24.303Z,85.60
2019-04-03T06:27:54.794Z,85.66
2019-04-03T06:30:25.852Z,85.72
2019-04-03T06:32:56.639Z,85.64
2019-04-03T06:35:27.221Z,85.64
2019-04-03T06:37:58.088Z,85.74
2019-04-03T06:40:28.632Z,85.86
2019-04-03T06:42:59.032Z,85.94
2019-04-03T06:45:29.647Z,86.05
2019-04-03T06:48:00.314Z,86.07
2019-04-03T06:50:33.301Z,86.01
2019-04-03T06:53:03.937Z,86.01
2019-04-03T06:55:35.484Z,86.01
2019-04-03T06:58:11.613Z,86.16
2019-04-03T07:00:41.636Z,86.23
2019-04-03T07:03:12.368Z,86.24
2019-04-03T07:05:42.973Z,86.08
2019-04-03T07:08:13.539Z,86.10
2019-04-03T07:10:54.722Z,86.25
2019-04-03T07:13:15.878Z,86.35
2019-04-03T07:15:46.528Z,86.29
2019-04-03T07:18:16.967Z,86.13
2019-04-03T07:20:47.691Z,86.04
2019-04-03T07:23:18.013Z,85.93
2019-04-03T07:25:48.873Z,85.89
2019-04-03T07:28:19.323Z,85.94
2019-04-03T07:30:52.799Z,86.16
2019-04-03T07:33:22.155Z,86.26
2019-04-03T07:35:52.763Z,86.28
2019-04-03T07:38:23.427Z,86.49
2019-04-03T07:40:54.068Z,86.70
2019-04-03T07:43:26.939Z,86.46
2019-04-03T07:45:56.897Z,85.56
2019-04-03T07:48:27.384Z,83.99
2019-04-03T07:50:57.746Z,82.32
2019-04-03T07:53:28.266Z,81.04
2019-04-03T07:55:58.695Z,80.97
2019-04-03T07:58:31.583Z,79.22
2019-04-03T08:01:02.507Z,80.02
2019-04-03T08:03:32.820Z,80.02
2019-04-03T08:06:04.358Z,79.98
2019-04-03T08:08:34.838Z,80.86
2019-04-03T08:11:05.273Z,81.65
2019-04-03T08:13:38.389Z,82.52
2019-04-03T08:16:07.872Z,82.28
2019-04-03T08:18:38.173Z,81.64
2019-04-03T08:21:08.432Z,81.83
2019-04-03T08:23:39.057Z,81.44
2019-04-03T08:26:11.467Z,81.89
2019-04-03T08:28:41.413Z,81.17
2019-04-03T08:31:12.129Z,81.47
2019-04-03T08:33:44.182Z,82.01
2019-04-03T08:36:24.681Z,82.20
2019-04-03T08:38:46.758Z,81.78
2019-04-03T08:41:17.136Z,81.78
2019-04-03T08:43:47.748Z,81.30
2019-04-03T08:46:19.655Z,80.44
2019-04-03T08:48:49.982Z,80.70
2019-04-03T08:51:20.514Z,80.70
2019-04-03T08:53:54.056Z,79.55
2019-04-03T08:56:24.084Z,78.78
2019-04-03T08:58:57.862Z,77.22
2019-04-03T09:01:30.250Z,76.64
2019-04-03T09:04:01.356Z,76.79
2019-04-03T09:07:00.227Z,77.77
2019-04-03T09:09:35.721Z,76.61
2019-04-03T09:12:17.068Z,74.18
2019-04-03T09:15:10.152Z,71.76
2019-04-03T09:17:42.067Z,70.50
2019-04-03T09:20:13.863Z,70.94
2019-04-03T09:22:44.615Z,70.94
2019-04-03T09:25:17.573Z,71.81
2019-04-03T09:27:49.528Z,71.53
2019-04-03T09:30:20.599Z,71.19
2019-04-03T09:32:53.334Z,70.14
2019-04-03T09:35:24.796Z,69.06
2019-04-03T09:37:55.822Z,69.89
2019-04-03T09:40:26.299Z,69.41
2019-04-03T09:42:56.684Z,69.74
2019-04-03T09:45:29.213Z,70.77
2019-04-03T09:48:00.342Z,71.87
2019-04-03T09:50:30.922Z,72.46
2019-04-03T09:53:02.821Z,72.46
2019-04-03T09:55:36.970Z,72.32
2019-04-03T09:58:05.836Z,72.09
2019-04-03T10:00:36.349Z,70.13
2019-04-03T10:03:06.960Z,69.84
2019-04-03T10:05:37.260Z,70.30
2019-04-03T10:08:08.900Z,69.80
2019-04-03T10:10:39.496Z,69.99
2019-04-03T10:13:10.099Z,68.52
2019-04-03T10:15:41.771Z,67.81
2019-04-03T10:18:12.368Z,66.47
2019-04-03T10:20:44.485Z,66.39
2019-04-03T10:23:16.686Z,65.82
2019-04-03T10:25:49.116Z,64.06
2019-04-03T10:28:21.954Z,65.76
2019-04-03T10:30:53.548Z,65.80
2019-04-03T10:33:24.445Z,65.86
2019-04-03T10:35:55.077Z,65.03
2019-04-03T10:38:25.736Z,65.00
2019-04-03T10:40:57.094Z,66.23
2019-04-03T10:43:31.649Z,66.94
2019-04-03T10:46:04.106Z,68.00
2019-04-03T10:48:38.044Z,68.43
2019-04-03T10:51:09.311Z,68.24
2019-04-03T10:53:40.898Z,68.63
2019-04-03T10:56:11.228Z,68.40
2019-04-03T10:58:43.792Z,67.29
2019-04-03T11:01:14.386Z,66.65
2019-04-03T11:03:47.166Z,65.49
2019-04-03T11:06:17.106Z,65.49
2019-04-03T11:08:49.918Z,65.61
2019-04-03T11:11:20.363Z,63.47
2019-04-03T11:13:51.941Z,59.99
2019-04-03T11:16:23.036Z,58.52
2019-04-03T11:18:59.896Z,57.81
2019-04-03T11:21:26.583Z,58.05
2019-04-03T11:23:58.072Z,58.25
2019-04-03T11:26:31.469Z,55.59
2019-04-03T11:29:08.774Z,53.15
2019-04-03T11:31:41.476Z,53.15
2019-04-03T11:34:10.562Z,53.40
2019-04-03T11:36:41.741Z,53.88
2019-04-03T11:39:15.637Z,53.31
2019-04-03T11:41:44.573Z,54.29
2019-04-03T11:44:17.734Z,55.97
2019-04-03T11:46:48.054Z,56.58
2019-04-03T11:49:20.029Z,56.83
2019-04-03T11:51:51.341Z,56.13
2019-04-03T11:54:23.917Z,55.41
2019-04-03T11:56:56.449Z,56.98
2019-04-03T11:59:28.990Z,57.61
2019-04-03T12:01:59.672Z,58.61
2019-04-03T12:04:30.179Z,58.92
2019-04-03T12:07:00.716Z,57.60
2019-04-03T12:09:32.383Z,57.25
2019-04-03T12:12:03.359Z,54.10
2019-04-03T12:14:33.864Z,52.52
2019-04-03T12:17:04.581Z,51.64
2019-04-03T12:19:37.116Z,48.61
2019-04-03T12:22:07.147Z,47.75
2019-04-03T12:24:37.825Z,46.96
2019-04-03T12:27:10.265Z,45.91
2019-04-03T12:29:41.077Z,46.72
2019-04-03T12:32:11.499Z,47.14
2019-04-03T12:34:42.079Z,47.90
2019-04-03T12:37:12.668Z,48.47
2019-04-03T12:39:43.299Z,49.17
2019-04-03T12:42:17.044Z,48.74
2019-04-03T12:44:47.306Z,49.32
2019-04-03T12:47:18.276Z,48.60
2019-04-03T12:49:49.086Z,49.77
2019-04-03T12:52:19.429Z,48.77
2019-04-03T12:54:53.217Z,48.70
2019-04-03T12:57:24.445Z,48.22
2019-04-03T12:59:55.569Z,49.04
2019-04-03T13:02:26.895Z,48.79
2019-04-03T13:05:00.235Z,48.85
2019-04-03T13:07:30.797Z,48.78
2019-04-03T13:10:01.810Z,48.78
2019-04-03T13:12:33.867Z,48.67
2019-04-03T13:15:06.674Z,48.67
2019-04-03T13:17:37.406Z,48.42
2019-04-03T13:20:10.240Z,47.87
2019-04-03T13:22:42.545Z,48.21
2019-04-03T13:25:13.229Z,47.64
2019-04-03T13:27:44.118Z,48.39
2019-04-03T13:30:15.699Z,48.74
2019-04-03T13:32:57.423Z,50.10
2019-04-03T13:35:18.749Z,50.50
2019-04-03T13:37:49.478Z,50.98
2019-04-03T13:40:20.563Z,51.52
2019-04-03T13:42:50.956Z,51.76
2019-04-03T13:45:21.539Z,52.76
2019-04-03T13:47:53.631Z,53.73
2019-04-03T13:50:26.056Z,55.17
2019-04-03T13:52:56.435Z,55.35
2019-04-03T13:55:28.858Z,55.14
2019-04-03T13:57:59.187Z,53.68
2019-04-03T14:00:32.138Z,54.68
2019-04-03T14:03:01.958Z,55.27
2019-04-03T14:05:33.652Z,55.83
2019-04-03T14:08:06.485Z,55.83
2019-04-03T14:10:38.343Z,55.35
2019-04-03T14:13:12.198Z,55.63
2019-04-03T14:15:42.333Z,55.57
2019-04-03T14:18:13.177Z,55.36
2019-04-03T14:20:44.936Z,55.35
2019-04-03T14:23:15.249Z,54.68
2019-04-03T14:25:45.625Z,54.58
2019-04-03T14:28:16.183Z,54.87
2019-04-03T14:30:46.951Z,54.51
2019-04-03T14:33:19.214Z,55.09
2019-04-03T14:35:53.345Z,55.56
2019-04-03T14:38:22.363Z,54.93
2019-04-03T14:40:53.973Z,55.10
2019-04-03T14:43:24.410Z,55.24
2019-04-03T14:45:57.445Z,55.29
2019-04-03T14:48:28.167Z,55.15
2019-04-03T14:50:59.127Z,54.91
2019-04-03T14:53:29.532Z,54.83
2019-04-03T14:56:00.475Z,55.06
2019-04-03T14:58:31.827Z,54.58
2019-04-03T15:01:02.138Z,55.06
2019-04-03T15:03:34.317Z,55.51
2019-04-03T15:06:04.683Z,55.32
2019-04-03T15:08:35.235Z,53.29
2019-04-03T15:11:06.050Z,52.68
2019-04-03T15:13:36.767Z,52.41
2019-04-03T15:16:07.144Z,52.64
2019-04-03T15:18:39.943Z,51.63
2019-04-03T15:21:11.439Z,51.09
2019-04-03T15:23:42.174Z,51.50
2019-04-03T15:26:12.587Z,51.70
2019-04-03T15:28:44.317Z,52.13
2019-04-03T15:31:15.438Z,51.27
2019-04-03T15:33:46.257Z,51.93
2019-04-03T15:36:17.169Z,52.54
2019-04-03T15:38:47.663Z,51.74
2019-04-03T15:41:18.371Z,51.75
2019-04-03T15:43:51.476Z,53.20
2019-04-03T15:46:22.448Z,53.20
2019-04-03T15:48:55.337Z,52.68
2019-04-03T15:51:26.354Z,53.47
2019-04-03T15:53:59.211Z,53.30
2019-04-03T15:56:30.128Z,53.82
2019-04-03T15:59:01.553Z,53.38
2019-04-03T16:01:35.042Z,53.82
2019-04-03T16:04:06.956Z,54.20
2019-04-03T16:06:37.307Z,53.74
2019-04-03T16:09:10.089Z,54.14
2019-04-03T16:11:40.855Z,53.31
2019-04-03T16:14:11.813Z,53.45
2019-04-03T16:16:42.730Z,53.84
2019-04-03T16:19:14.178Z,54.27
2019-04-03T16:21:44.867Z,54.73
2019-04-03T16:24:17.820Z,55.23
2019-04-03T16:26:48.257Z,55.75
2019-04-03T16:29:19.767Z,55.91
2019-04-03T16:31:53.791Z,56.18
2019-04-03T16:34:23.045Z,56.18
2019-04-03T16:36:56.631Z,56.69
2019-04-03T16:39:32.354Z,57.14
2019-04-03T16:42:01.473Z,57.33
2019-04-03T16:44:34.000Z,57.53
2019-04-03T16:47:05.011Z,57.70
2019-04-03T16:49:35.724Z,57.78
2019-04-03T16:52:06.364Z,58.00
2019-04-03T16:54:37.135Z,58.33
2019-04-03T16:57:09.129Z,58.50
2019-04-03T16:59:39.712Z,58.87
2019-04-03T17:02:10.304Z,58.88
2019-04-03T17:04:40.877Z,58.75
2019-04-03T17:07:11.480Z,58.40
2019-04-03T17:09:41.901Z,58.46
2019-04-03T17:12:12.815Z,58.65
2019-04-03T17:14:43.562Z,59.05
2019-04-03T17:17:14.869Z,59.19
2019-04-03T17:19:45.788Z,59.59
2019-04-03T17:22:16.700Z,59.55
2019-04-03T17:24:49.541Z,59.49
2019-04-03T17:27:19.867Z,59.61
2019-04-03T17:29:50.471Z,60.17
2019-04-03T17:32:21.166Z,60.60
2019-04-03T17:34:51.525Z,60.74
2019-04-03T17:37:26.350Z,61.00
2019-04-03T17:39:56.936Z,61.39
2019-04-03T17:42:27.837Z,61.75
2019-04-03T17:44:58.313Z,61.59
2019-04-03T17:47:29.391Z,62.05
2019-04-03T17:50:00.108Z,62.17
2019-04-03T17:52:31.019Z,62.31
2019-04-03T17:55:01.463Z,62.21
2019-04-03T17:57:32.603Z,62.37
2019-04-03T18:00:03.760Z,62.14
2019-04-03T18:02:37.133Z,61.92
2019-04-03T18:05:09.360Z,62.24
2019-04-03T18:07:41.914Z,62.59
2019-04-03T18:10:13.124Z,62.78
2019-04-03T18:12:45.648Z,62.95
2019-04-03T18:15:17.278Z,62.96
2019-04-03T18:17:47.879Z,62.88
2019-04-03T18:20:18.414Z,63.06
2019-04-03T18:22:51.096Z,63.34
2019-04-03T18:25:21.232Z,63.49
2019-04-03T18:27:51.772Z,63.77
2019-04-03T18:30:22.485Z,64.10
2019-04-03T18:32:52.763Z,64.12
2019-04-03T18:35:25.543Z,64.17
2019-04-03T18:37:55.419Z,64.25
2019-04-03T18:40:26.405Z,64.30
2019-04-03T18:42:57.053Z,64.43
2019-04-03T18:45:27.788Z,64.12
2019-04-03T18:47:58.303Z,63.86
2019-04-03T18:50:28.891Z,63.65
2019-04-03T18:52:59.555Z,63.95
2019-04-03T18:55:34.739Z,63.85
2019-04-03T18:58:06.390Z,63.81
2019-04-03T19:00:42.724Z,63.91
2019-04-03T19:03:31.096Z,63.70
2019-04-03T19:06:01.722Z,63.90
2019-04-03T19:08:32.130Z,63.78
2019-04-03T19:11:06.180Z,64.17
2019-04-03T19:13:37.982Z,64.35
2019-04-03T19:16:09.090Z,64.38
2019-04-03T19:18:39.997Z,64.38
2019-04-03T19:21:23.738Z,64.56
2019-04-03T19:23:49.594Z,64.63
2019-04-03T19:26:15.018Z,64.59
2019-04-03T19:28:46.712Z,64.67
2019-04-03T19:31:20.961Z,64.78
2019-04-03T19:33:51.840Z,65.03
2019-04-03T19:36:22.217Z,65.28
2019-04-03T19:38:53.586Z,65.53
2019-04-03T19:41:24.921Z,65.90
2019-04-03T19:43:55.482Z,66.13
2019-04-03T19:46:27.312Z,66.13
2019-04-03T19:48:58.665Z,66.35
2019-04-03T19:51:29.295Z,66.75
2019-04-03T19:54:00.066Z,67.18
2019-04-03T19:56:30.404Z,67.34
2019-04-03T19:59:00.733Z,68.26
2019-04-03T20:01:32.286Z,68.83
2019-04-03T20:04:03.816Z,68.93
2019-04-03T20:06:35.636Z,69.19
2019-04-03T20:09:09.315Z,69.19
2019-04-03T20:11:40.075Z,69.14
2019-04-03T20:14:11.983Z,69.29
2019-04-03T20:16:42.515Z,69.55
2019-04-03T20:19:12.890Z,69.28
2019-04-03T20:21:44.200Z,69.40
2019-04-03T20:24:14.543Z,69.72
2019-04-03T20:27:22.674Z,69.80
2019-04-03T20:29:18.139Z,69.80
2019-04-03T20:31:49.932Z,70.15
2019-04-03T20:34:20.331Z,70.31
2019-04-03T20:36:54.480Z,70.43
2019-04-03T20:39:22.704Z,70.56
2019-04-03T20:41:53.361Z,70.93
2019-04-03T20:44:24.005Z,71.03
2019-04-03T20:46:57.275Z,71.02
2019-04-03T20:49:26.543Z,71.34
2019-04-03T20:51:56.902Z,71.47
2019-04-03T20:54:27.546Z,71.62
2019-04-03T20:57:00.329Z,71.87
2019-04-03T20:59:30.342Z,71.86
2019-04-03T21:02:00.746Z,72.12
2019-04-03T21:04:31.091Z,72.19
2019-04-03T21:07:01.642Z,72.36
2019-04-03T21:09:33.115Z,72.43
2019-04-03T21:12:04.994Z,72.55
2019-04-03T21:14:35.956Z,72.64
2019-04-03T21:17:06.530Z,72.74
2019-04-03T21:19:37.100Z,72.79
2019-04-03T21:22:07.738Z,72.90
2019-04-03T21:24:38.190Z,73.04
2019-04-03T21:27:09.297Z,73.19
2019-04-03T21:29:40.912Z,73.27
2019-04-03T21:32:11.174Z,73.42
2019-04-03T21:34:43.067Z,73.39
2019-04-03T21:37:14.121Z,73.14
2019-04-03T21:39:46.007Z,72.49
2019-04-03T21:42:16.383Z,72.32
2019-04-03T21:44:46.740Z,72.33
2019-04-03T21:47:17.250Z,72.42
2019-04-03T21:49:48.182Z,72.56
2019-04-03T21:52:18.705Z,72.69
2019-04-03T21:54:49.026Z,72.98
2019-04-03T21:57:19.931Z,73.13
2019-04-03T21:59:50.240Z,73.33
2019-04-03T22:02:20.557Z,73.64
2019-04-03T22:04:53.552Z,74.08
2019-04-03T22:07:23.407Z,74.11
2019-04-03T22:09:54.161Z,74.27
2019-04-03T22:12:24.794Z,74.61
2019-04-03T22:14:55.100Z,75.00
2019-04-03T22:17:26.826Z,75.36
2019-04-03T22:19:58.574Z,75.71
2019-04-03T22:22:31.925Z,75.76
2019-04-03T22:25:02.314Z,75.98
2019-04-03T22:27:34.432Z,75.89
2019-04-03T22:30:05.153Z,76.42
2019-04-03T22:32:35.843Z,76.44
2019-04-03T22:35:06.725Z,76.76
2019-04-03T22:37:38.339Z,76.95
2019-04-03T22:40:10.700Z,77.02
2019-04-03T22:42:45.323Z,77.31
2019-04-03T22:45:14.746Z,77.43
2019-04-03T22:47:47.470Z,77.61
2019-04-03T22:50:17.058Z,77.58
2019-04-03T22:52:47.691Z,77.85
2019-04-03T22:55:18.393Z,77.80
2019-04-03T22:57:50.396Z,77.78
2019-04-03T23:00:21.049Z,77.92
2019-04-03T23:02:51.756Z,78.14
2019-04-03T23:05:22.066Z,78.17
2019-04-03T23:07:52.662Z,78.10
2019-04-03T23:10:25.230Z,78.28
2019-04-03T23:12:55.662Z,78.36
2019-04-03T23:15:26.226Z,78.46
2019-04-03T23:17:56.680Z,78.42
2019-04-03T23:20:27.134Z,78.50
2019-04-03T23:22:57.643Z,78.57
2019-04-03T23:25:29.691Z,78.60
2019-04-03T23:28:02.820Z,78.60
2019-04-03T23:30:32.962Z,78.58
2019-04-03T23:33:05.217Z,78.58
2019-04-03T23:35:35.585Z,78.70
2019-04-03T23:38:05.834Z,78.87
2019-04-03T23:40:37.385Z,79.39
2019-04-03T23:43:08.975Z,79.39
2019-04-03T23:45:43.528Z,79.75
2019-04-03T23:48:13.087Z,79.88
2019-04-03T23:50:43.361Z,80.00
2019-04-03T23:53:14.685Z,80.20
2019-04-03T23:55:44.960Z,80.59
2019-04-03T23:58:15.227Z,80.73
